sensor_id;sensor_type;location;lat;lon;timestamp;pressure;altitude;pressure_sealevel;temperature;humidity
3697;BME280;60662;48.810;8.872;2023-02-11T09:15:28;98321.09;;;5.31;65.18
3697;BME280;60662;48.810;8.872;2023-02-11T09:16:32;98331.63;;;6.32;62.25
3697;BME280;60662;48.810;8.872;2023-02-11T09:19:15;98310.66;;;7.11;59.52
3697;BME280;60662;48.810;8.872;2023-02-11T09:20:17;98330.53;;;7.26;58.33
3697;BME280;60662;48.810;8.872;2023-02-11T09:21:19;98325.94;;;7.68;57.31
3697;BME280;60662;48.810;8.872;2023-02-11T09:22:20;98321.69;;;7.58;58.22
3697;BME280;60662;48.810;8.872;2023-02-11T09:23:22;98322.34;;;7.91;56.90
3697;BME280;60662;48.810;8.872;2023-02-11T09:24:26;98325.25;;;8.59;56.04
3697;BME280;60662;48.810;8.872;2023-02-11T09:25:27;98318.59;;;8.26;55.63
3697;BME280;60662;48.810;8.872;2023-02-11T09:26:30;98315.50;;;7.77;57.07
3697;BME280;60662;48.810;8.872;2023-02-11T09:27:32;98303.31;;;7.84;56.36
3697;BME280;60662;48.810;8.872;2023-02-11T09:28:34;98313.38;;;8.30;56.25
3697;BME280;60662;48.810;8.872;2023-02-11T09:29:36;98311.78;;;9.01;54.48
3697;BME280;60662;48.810;8.872;2023-02-11T09:30:38;98317.06;;;9.63;53.05
3697;BME280;60662;48.810;8.872;2023-02-11T09:31:40;98313.81;;;10.60;51.19
3697;BME280;60662;48.810;8.872;2023-02-11T09:32:41;98308.44;;;10.69;50.23
3697;BME280;60662;48.810;8.872;2023-02-11T09:33:45;98308.88;;;10.91;50.00
3697;BME280;60662;48.810;8.872;2023-02-11T09:34:50;98307.97;;;11.35;48.89
3697;BME280;60662;48.810;8.872;2023-02-11T09:35:51;98308.81;;;10.93;48.67
3697;BME280;60662;48.810;8.872;2023-02-11T09:36:53;98309.94;;;12.05;47.00
3697;BME280;60662;48.810;8.872;2023-02-11T09:37:55;98315.84;;;12.81;44.95
3697;BME280;60662;48.810;8.872;2023-02-11T09:38:58;98318.06;;;12.65;45.31
3697;BME280;60662;48.810;8.872;2023-02-11T09:39:59;98315.19;;;13.05;44.98
3697;BME280;60662;48.810;8.872;2023-02-11T09:41:01;98316.88;;;13.08;45.01
3697;BME280;60662;48.810;8.872;2023-02-11T09:43:03;98320.63;;;12.99;44.39
3697;BME280;60662;48.810;8.872;2023-02-11T09:43:45;98321.97;;;13.74;42.82
3697;BME280;60662;48.810;8.872;2023-02-11T09:44:49;98327.75;;;13.26;43.05
3697;BME280;60662;48.810;8.872;2023-02-11T09:45:53;98313.41;;;13.96;42.36
3697;BME280;60662;48.810;8.872;2023-02-11T09:47:01;98314.56;;;14.93;41.02
3697;BME280;60662;48.810;8.872;2023-02-11T09:48:16;98313.47;;;14.75;41.13
3697;BME280;60662;48.810;8.872;2023-02-11T09:49:22;98319.75;;;13.88;42.29
3697;BME280;60662;48.810;8.872;2023-02-11T09:50:32;98326.25;;;13.15;43.13
3697;BME280;60662;48.810;8.872;2023-02-11T09:51:56;98329.59;;;13.53;42.88
3697;BME280;60662;48.810;8.872;2023-02-11T09:53:25;98321.38;;;13.64;42.79
3697;BME280;60662;48.810;8.872;2023-02-11T09:54:38;98331.41;;;13.80;41.97
3697;BME280;60662;48.810;8.872;2023-02-11T09:55:47;98337.19;;;13.63;43.14
3697;BME280;60662;48.810;8.872;2023-02-11T09:56:50;98339.81;;;14.19;41.40
3697;BME280;60662;48.810;8.872;2023-02-11T09:57:52;98345.13;;;13.60;42.67
3697;BME280;60662;48.810;8.872;2023-02-11T09:58:54;98342.47;;;14.18;41.58
3697;BME280;60662;48.810;8.872;2023-02-11T09:59:55;98347.81;;;13.88;42.41
3697;BME280;60662;48.810;8.872;2023-02-11T10:02:17;98348.28;;;14.54;40.78
3697;BME280;60662;48.810;8.872;2023-02-11T10:05:10;98347.75;;;14.72;39.98
3697;BME280;60662;48.810;8.872;2023-02-11T10:13:13;98364.69;;;15.86;38.17
3697;BME280;60662;48.810;8.872;2023-02-11T10:17:11;98361.25;;;16.28;37.75
3697;BME280;60662;48.810;8.872;2023-02-11T10:18:37;98353.53;;;16.46;37.25
3697;BME280;60662;48.810;8.872;2023-02-11T10:19:56;98352.97;;;15.93;38.58
3697;BME280;60662;48.810;8.872;2023-02-11T10:22:31;98361.25;;;16.51;38.20
3697;BME280;60662;48.810;8.872;2023-02-11T10:23:39;98365.63;;;16.72;37.48
3697;BME280;60662;48.810;8.872;2023-02-11T10:24:49;98366.44;;;16.52;38.50
3697;BME280;60662;48.810;8.872;2023-02-11T10:25:52;98367.72;;;16.64;37.92
3697;BME280;60662;48.810;8.872;2023-02-11T10:26:57;98368.59;;;17.45;36.72
3697;BME280;60662;48.810;8.872;2023-02-11T10:28:00;98368.34;;;17.90;35.85
3697;BME280;60662;48.810;8.872;2023-02-11T10:29:25;98368.97;;;17.57;35.67
3697;BME280;60662;48.810;8.872;2023-02-11T10:30:34;98374.97;;;16.59;37.27
3697;BME280;60662;48.810;8.872;2023-02-11T10:31:40;98369.75;;;16.57;37.24
3697;BME280;60662;48.810;8.872;2023-02-11T10:33:55;98369.69;;;16.79;37.49
3697;BME280;60662;48.810;8.872;2023-02-11T10:35:02;98363.78;;;17.16;37.53
3697;BME280;60662;48.810;8.872;2023-02-11T10:36:04;98360.34;;;16.72;37.16
3697;BME280;60662;48.810;8.872;2023-02-11T10:37:07;98357.53;;;14.40;39.83
3697;BME280;60662;48.810;8.872;2023-02-11T10:38:10;98360.53;;;13.42;41.77
3697;BME280;60662;48.810;8.872;2023-02-11T10:39:30;98361.00;;;14.94;41.81
3697;BME280;60662;48.810;8.872;2023-02-11T10:40:32;98348.81;;;16.75;38.37
3697;BME280;60662;48.810;8.872;2023-02-11T10:41:37;98356.66;;;16.76;37.59
3697;BME280;60662;48.810;8.872;2023-02-11T10:42:41;98331.09;;;14.96;39.09
3697;BME280;60662;48.810;8.872;2023-02-11T10:43:44;98357.06;;;13.09;42.55
3697;BME280;60662;48.810;8.872;2023-02-11T10:44:58;98356.31;;;14.23;41.32
3697;BME280;60662;48.810;8.872;2023-02-11T10:46:03;98360.50;;;15.57;39.79
3697;BME280;60662;48.810;8.872;2023-02-11T10:47:21;98351.94;;;16.20;38.49
3697;BME280;60662;48.810;8.872;2023-02-11T10:48:44;98350.63;;;17.35;36.72
3697;BME280;60662;48.810;8.872;2023-02-11T10:49:47;98329.78;;;16.25;37.48
3697;BME280;60662;48.810;8.872;2023-02-11T10:50:49;98337.41;;;16.31;38.42
3697;BME280;60662;48.810;8.872;2023-02-11T10:52:20;98338.22;;;17.56;36.69
3697;BME280;60662;48.810;8.872;2023-02-11T10:53:22;98338.34;;;17.91;35.58
3697;BME280;60662;48.810;8.872;2023-02-11T10:54:24;98332.72;;;17.60;35.64
3697;BME280;60662;48.810;8.872;2023-02-11T10:55:26;98326.34;;;17.26;36.66
3697;BME280;60662;48.810;8.872;2023-02-11T10:56:31;98326.25;;;17.09;36.44
3697;BME280;60662;48.810;8.872;2023-02-11T10:57:37;98323.13;;;17.20;36.47
3697;BME280;60662;48.810;8.872;2023-02-11T10:58:45;98321.19;;;17.04;36.61
3697;BME280;60662;48.810;8.872;2023-02-11T11:00:01;98303.13;;;15.43;38.63
3697;BME280;60662;48.810;8.872;2023-02-11T11:01:03;98324.81;;;15.95;38.31
3697;BME280;60662;48.810;8.872;2023-02-11T11:02:25;98305.13;;;16.88;37.34
3697;BME280;60662;48.810;8.872;2023-02-11T11:03:49;98305.31;;;16.22;37.21
3697;BME280;60662;48.810;8.872;2023-02-11T11:04:55;98300.59;;;16.71;37.10
3697;BME280;60662;48.810;8.872;2023-02-11T11:06:00;98308.31;;;16.55;37.04
3697;BME280;60662;48.810;8.872;2023-02-11T11:07:21;98307.97;;;16.63;37.57
3697;BME280;60662;48.810;8.872;2023-02-11T11:08:39;98303.06;;;17.92;35.35
3697;BME280;60662;48.810;8.872;2023-02-11T11:11:03;98297.09;;;16.29;37.47
3697;BME280;60662;48.810;8.872;2023-02-11T11:12:05;98306.66;;;16.53;37.38
3697;BME280;60662;48.810;8.872;2023-02-11T11:13:23;98305.50;;;16.38;37.49
3697;BME280;60662;48.810;8.872;2023-02-11T11:14:25;98304.09;;;16.92;36.99
3697;BME280;60662;48.810;8.872;2023-02-11T11:15:30;98307.97;;;16.63;37.14
3697;BME280;60662;48.810;8.872;2023-02-11T11:16:35;98312.84;;;17.13;36.64
3697;BME280;60662;48.810;8.872;2023-02-11T11:17:37;98308.84;;;17.05;36.59
3697;BME280;60662;48.810;8.872;2023-02-11T11:18:39;98317.06;;;17.18;36.21
3697;BME280;60662;48.810;8.872;2023-02-11T11:19:41;98309.59;;;17.66;36.45
3697;BME280;60662;48.810;8.872;2023-02-11T11:20:55;98310.09;;;17.74;36.26
3697;BME280;60662;48.810;8.872;2023-02-11T11:21:57;98316.75;;;18.02;36.47
3697;BME280;60662;48.810;8.872;2023-02-11T11:23:17;98311.38;;;18.03;36.05
3697;BME280;60662;48.810;8.872;2023-02-11T11:25:25;98315.53;;;18.44;35.78
3697;BME280;60662;48.810;8.872;2023-02-11T11:26:51;98310.59;;;18.89;35.68
3697;BME280;60662;48.810;8.872;2023-02-11T11:27:55;98308.69;;;18.75;35.57
3697;BME280;60662;48.810;8.872;2023-02-11T11:29:00;98317.53;;;18.21;35.81
3697;BME280;60662;48.810;8.872;2023-02-11T11:30:14;98306.59;;;17.54;36.77
3697;BME280;60662;48.810;8.872;2023-02-11T11:31:30;98311.31;;;18.22;36.05
3697;BME280;60662;48.810;8.872;2023-02-11T11:32:33;98306.03;;;19.10;35.28
3697;BME280;60662;48.810;8.872;2023-02-11T11:33:36;98306.41;;;18.85;35.18
3697;BME280;60662;48.810;8.872;2023-02-11T11:34:41;98313.13;;;19.25;35.00
3697;BME280;60662;48.810;8.872;2023-02-11T11:35:54;98311.56;;;19.55;34.27
3697;BME280;60662;48.810;8.872;2023-02-11T11:36:58;98311.28;;;19.44;33.90
3697;BME280;60662;48.810;8.872;2023-02-11T11:38:03;98301.06;;;18.34;35.35
3697;BME280;60662;48.810;8.872;2023-02-11T11:39:18;98309.91;;;18.85;35.32
3697;BME280;60662;48.810;8.872;2023-02-11T11:40:29;98312.41;;;18.18;35.52
3697;BME280;60662;48.810;8.872;2023-02-11T11:41:32;98307.13;;;18.71;35.31
3697;BME280;60662;48.810;8.872;2023-02-11T11:42:38;98319.13;;;18.06;36.02
3697;BME280;60662;48.810;8.872;2023-02-11T11:43:53;98314.84;;;18.93;35.49
3697;BME280;60662;48.810;8.872;2023-02-11T11:45:00;98310.41;;;18.93;35.38
3697;BME280;60662;48.810;8.872;2023-02-11T11:46:02;98316.38;;;19.15;34.86
3697;BME280;60662;48.810;8.872;2023-02-11T11:48:36;98310.72;;;19.54;34.82
3697;BME280;60662;48.810;8.872;2023-02-11T11:49:57;98315.84;;;19.73;33.81
3697;BME280;60662;48.810;8.872;2023-02-11T11:51:10;98309.66;;;19.41;34.04
3697;BME280;60662;48.810;8.872;2023-02-11T11:52:31;98302.38;;;18.77;34.50
3697;BME280;60662;48.810;8.872;2023-02-11T11:53:40;98309.94;;;18.50;34.59
3697;BME280;60662;48.810;8.872;2023-02-11T11:54:49;98300.59;;;18.78;35.28
3697;BME280;60662;48.810;8.872;2023-02-11T11:56:04;98294.44;;;18.95;34.59
3697;BME280;60662;48.810;8.872;2023-02-11T11:57:14;98304.75;;;18.49;35.38
3697;BME280;60662;48.810;8.872;2023-02-11T11:58:19;98302.78;;;18.52;35.97
3697;BME280;60662;48.810;8.872;2023-02-11T11:59:21;98305.75;;;17.54;36.52
3697;BME280;60662;48.810;8.872;2023-02-11T12:00:34;98301.19;;;17.57;37.18
3697;BME280;60662;48.810;8.872;2023-02-11T12:02:09;98299.59;;;17.53;37.33
3697;BME280;60662;48.810;8.872;2023-02-11T12:06:06;98300.03;;;18.71;35.82
3697;BME280;60662;48.810;8.872;2023-02-11T12:12:34;98298.09;;;15.82;39.98
3697;BME280;60662;48.810;8.872;2023-02-11T12:15:28;98296.91;;;16.75;38.92
3697;BME280;60662;48.810;8.872;2023-02-11T12:19:18;98301.16;;;17.19;38.20
3697;BME280;60662;48.810;8.872;2023-02-11T12:23:20;98294.38;;;18.44;36.56
3697;BME280;60662;48.810;8.872;2023-02-11T12:24:44;98298.81;;;18.26;37.37
3697;BME280;60662;48.810;8.872;2023-02-11T12:27:16;98294.34;;;18.79;36.65
3697;BME280;60662;48.810;8.872;2023-02-11T12:34:52;98298.72;;;16.11;39.90
3697;BME280;60662;48.810;8.872;2023-02-11T12:37:36;98296.72;;;15.26;41.97
3697;BME280;60662;48.810;8.872;2023-02-11T12:39:05;98297.38;;;16.01;41.16
3697;BME280;60662;48.810;8.872;2023-02-11T12:40:30;98297.81;;;16.95;39.87
3697;BME280;60662;48.810;8.872;2023-02-11T12:41:57;98298.88;;;16.91;39.28
3697;BME280;60662;48.810;8.872;2023-02-11T12:43:23;98291.56;;;16.56;40.85
3697;BME280;60662;48.810;8.872;2023-02-11T12:48:04;98290.91;;;16.92;39.86
3697;BME280;60662;48.810;8.872;2023-02-11T12:49:31;98296.53;;;17.24;38.84
3697;BME280;60662;48.810;8.872;2023-02-11T12:50:53;98296.28;;;17.86;38.70
3697;BME280;60662;48.810;8.872;2023-02-11T12:52:16;98302.22;;;17.53;38.95
3697;BME280;60662;48.810;8.872;2023-02-11T12:54:42;98287.97;;;17.76;38.30
3697;BME280;60662;48.810;8.872;2023-02-11T12:55:50;98297.53;;;17.79;38.24
3697;BME280;60662;48.810;8.872;2023-02-11T12:58:02;98295.63;;;17.05;38.91
3697;BME280;60662;48.810;8.872;2023-02-11T12:59:12;98292.09;;;17.25;39.31
3697;BME280;60662;48.810;8.872;2023-02-11T13:00:19;98291.03;;;17.48;38.84
3697;BME280;60662;48.810;8.872;2023-02-11T13:01:29;98289.84;;;16.35;40.17
3697;BME280;60662;48.810;8.872;2023-02-11T13:05:26;98280.28;;;17.34;39.58
3697;BME280;60662;48.810;8.872;2023-02-11T13:06:36;98293.00;;;16.84;40.69
3697;BME280;60662;48.810;8.872;2023-02-11T13:07:44;98286.03;;;17.23;40.33
3697;BME280;60662;48.810;8.872;2023-02-11T13:08:49;98271.47;;;16.54;41.58
3697;BME280;60662;48.810;8.872;2023-02-11T13:10:07;98285.59;;;16.94;40.35
3697;BME280;60662;48.810;8.872;2023-02-11T13:11:19;98280.47;;;17.48;39.96
3697;BME280;60662;48.810;8.872;2023-02-11T13:12:22;98279.28;;;18.11;39.20
3697;BME280;60662;48.810;8.872;2023-02-11T13:14:45;98276.59;;;17.74;38.80
3697;BME280;60662;48.810;8.872;2023-02-11T13:16:03;98258.41;;;17.11;39.70
3697;BME280;60662;48.810;8.872;2023-02-11T13:17:23;98262.56;;;17.17;39.47
3697;BME280;60662;48.810;8.872;2023-02-11T13:18:48;98267.34;;;17.46;39.82
3697;BME280;60662;48.810;8.872;2023-02-11T13:19:58;98268.47;;;17.03;40.01
3697;BME280;60662;48.810;8.872;2023-02-11T13:22:09;98277.69;;;17.70;39.41
3697;BME280;60662;48.810;8.872;2023-02-11T13:23:26;98265.91;;;17.58;39.72
3697;BME280;60662;48.810;8.872;2023-02-11T13:24:49;98264.25;;;17.56;39.52
3697;BME280;60662;48.810;8.872;2023-02-11T13:25:58;98277.06;;;17.27;40.34
3697;BME280;60662;48.810;8.872;2023-02-11T13:28:41;98274.78;;;17.38;39.23
3697;BME280;60662;48.810;8.872;2023-02-11T13:30:53;98273.16;;;16.96;40.13
3697;BME280;60662;48.810;8.872;2023-02-11T13:32:07;98265.06;;;16.80;40.80
3697;BME280;60662;48.810;8.872;2023-02-11T13:34:25;98265.94;;;16.60;40.94
3697;BME280;60662;48.810;8.872;2023-02-11T13:35:38;98270.91;;;16.25;41.94
3697;BME280;60662;48.810;8.872;2023-02-11T13:36:40;98259.78;;;15.74;42.38
3697;BME280;60662;48.810;8.872;2023-02-11T13:37:46;98269.84;;;16.08;42.14
3697;BME280;60662;48.810;8.872;2023-02-11T13:39:02;98265.72;;;16.44;41.84
3697;BME280;60662;48.810;8.872;2023-02-11T13:41:15;98273.63;;;16.44;41.63
3697;BME280;60662;48.810;8.872;2023-02-11T13:42:17;98255.97;;;16.25;41.16
3697;BME280;60662;48.810;8.872;2023-02-11T13:43:21;98269.16;;;16.03;42.02
3697;BME280;60662;48.810;8.872;2023-02-11T13:44:25;98272.13;;;15.49;42.22
3697;BME280;60662;48.810;8.872;2023-02-11T13:45:35;98269.00;;;15.86;41.84
3697;BME280;60662;48.810;8.872;2023-02-11T13:47:56;98259.44;;;16.05;41.34
3697;BME280;60662;48.810;8.872;2023-02-11T13:48:58;98256.81;;;16.46;40.58
3697;BME280;60662;48.810;8.872;2023-02-11T13:50:02;98267.59;;;16.20;40.88
3697;BME280;60662;48.810;8.872;2023-02-11T13:51:08;98255.00;;;15.39;42.38
3697;BME280;60662;48.810;8.872;2023-02-11T13:52:27;98273.75;;;15.30;42.87
3697;BME280;60662;48.810;8.872;2023-02-11T13:53:43;98267.06;;;14.97;42.92
3697;BME280;60662;48.810;8.872;2023-02-11T13:54:49;98270.16;;;15.09;42.87
3697;BME280;60662;48.810;8.872;2023-02-11T13:56:03;98257.50;;;14.71;42.87
3697;BME280;60662;48.810;8.872;2023-02-11T13:57:32;98269.75;;;15.19;42.67
3697;BME280;60662;48.810;8.872;2023-02-11T13:58:37;98270.19;;;15.31;43.06
3697;BME280;60662;48.810;8.872;2023-02-11T13:59:49;98273.06;;;15.25;42.47
3697;BME280;60662;48.810;8.872;2023-02-11T14:00:51;98268.84;;;15.44;42.32
3697;BME280;60662;48.810;8.872;2023-02-11T14:03:21;98274.16;;;15.19;42.63
3697;BME280;60662;48.810;8.872;2023-02-11T14:06:31;98268.19;;;14.90;43.34
3697;BME280;60662;48.810;8.872;2023-02-11T14:09:35;98264.09;;;14.56;43.45
3697;BME280;60662;48.810;8.872;2023-02-11T14:11:52;98266.19;;;15.44;42.96
3697;BME280;60662;48.810;8.872;2023-02-11T14:14:27;98252.22;;;14.46;43.28
3697;BME280;60662;48.810;8.872;2023-02-11T14:15:37;98262.50;;;14.52;43.67
3697;BME280;60662;48.810;8.872;2023-02-11T14:17:17;98256.75;;;14.41;43.87
3697;BME280;60662;48.810;8.872;2023-02-11T14:19:47;98250.88;;;14.59;43.25
3697;BME280;60662;48.810;8.872;2023-02-11T14:20:49;98254.91;;;14.95;43.05
3697;BME280;60662;48.810;8.872;2023-02-11T14:21:52;98244.72;;;14.60;43.24
3697;BME280;60662;48.810;8.872;2023-02-11T14:22:54;98251.75;;;15.09;42.80
3697;BME280;60662;48.810;8.872;2023-02-11T14:25:21;98255.09;;;15.36;42.16
3697;BME280;60662;48.810;8.872;2023-02-11T14:29:38;98252.47;;;15.80;41.51
3697;BME280;60662;48.810;8.872;2023-02-11T14:31:09;98247.97;;;16.06;41.30
3697;BME280;60662;48.810;8.872;2023-02-11T14:32:20;98252.78;;;16.38;40.65
3697;BME280;60662;48.810;8.872;2023-02-11T14:33:41;98247.81;;;15.89;40.92
3697;BME280;60662;48.810;8.872;2023-02-11T14:35:02;98255.06;;;15.82;40.92
3697;BME280;60662;48.810;8.872;2023-02-11T14:36:22;98249.44;;;16.34;40.45
3697;BME280;60662;48.810;8.872;2023-02-11T14:40:34;98255.97;;;15.59;40.88
3697;BME280;60662;48.810;8.872;2023-02-11T14:41:44;98262.72;;;14.96;41.99
3697;BME280;60662;48.810;8.872;2023-02-11T14:42:46;98257.91;;;14.84;42.21
3697;BME280;60662;48.810;8.872;2023-02-11T14:43:58;98257.66;;;14.41;42.83
3697;BME280;60662;48.810;8.872;2023-02-11T14:45:10;98256.28;;;13.17;44.64
3697;BME280;60662;48.810;8.872;2023-02-11T14:46:17;98256.56;;;12.77;45.58
3697;BME280;60662;48.810;8.872;2023-02-11T14:47:22;98258.91;;;12.86;45.84
3697;BME280;60662;48.810;8.872;2023-02-11T14:48:33;98257.47;;;13.35;45.52
3697;BME280;60662;48.810;8.872;2023-02-11T14:49:38;98261.84;;;13.66;44.89
3697;BME280;60662;48.810;8.872;2023-02-11T14:50:45;98249.41;;;13.13;46.07
3697;BME280;60662;48.810;8.872;2023-02-11T14:51:48;98256.28;;;13.17;45.60
3697;BME280;60662;48.810;8.872;2023-02-11T14:52:51;98263.22;;;13.50;45.41
3697;BME280;60662;48.810;8.872;2023-02-11T14:53:57;98261.94;;;13.90;44.57
3697;BME280;60662;48.810;8.872;2023-02-11T14:55:12;98258.25;;;14.23;44.18
3697;BME280;60662;48.810;8.872;2023-02-11T14:56:26;98266.78;;;15.05;42.85
3697;BME280;60662;48.810;8.872;2023-02-11T14:57:28;98261.69;;;13.98;44.15
3697;BME280;60662;48.810;8.872;2023-02-11T14:58:31;98265.00;;;14.04;44.33
3697;BME280;60662;48.810;8.872;2023-02-11T14:59:32;98272.69;;;13.82;44.68
3697;BME280;60662;48.810;8.872;2023-02-11T15:00:34;98270.75;;;13.31;44.90
3697;BME280;60662;48.810;8.872;2023-02-11T15:01:40;98278.22;;;12.50;47.20
3697;BME280;60662;48.810;8.872;2023-02-11T15:02:42;98287.41;;;12.98;46.44
3697;BME280;60662;48.810;8.872;2023-02-11T15:03:48;98286.09;;;12.50;46.83
3697;BME280;60662;48.810;8.872;2023-02-11T15:04:49;98284.47;;;12.12;47.73
3697;BME280;60662;48.810;8.872;2023-02-11T15:06:03;98284.03;;;11.92;47.78
3697;BME280;60662;48.810;8.872;2023-02-11T15:07:07;98280.53;;;11.92;48.11
3697;BME280;60662;48.810;8.872;2023-02-11T15:08:13;98278.94;;;11.47;49.27
3697;BME280;60662;48.810;8.872;2023-02-11T15:09:21;98275.78;;;11.33;49.25
3697;BME280;60662;48.810;8.872;2023-02-11T15:10:35;98279.16;;;11.38;49.46
3697;BME280;60662;48.810;8.872;2023-02-11T15:11:40;98278.81;;;11.13;49.68
3697;BME280;60662;48.810;8.872;2023-02-11T15:12:44;98284.00;;;11.14;50.35
3697;BME280;60662;48.810;8.872;2023-02-11T15:13:50;98249.00;;;10.79;50.05
3697;BME280;60662;48.810;8.872;2023-02-11T15:14:57;98284.81;;;10.74;50.43
3697;BME280;60662;48.810;8.872;2023-02-11T15:16:05;98279.31;;;10.42;51.46
3697;BME280;60662;48.810;8.872;2023-02-11T15:17:08;98273.03;;;10.51;51.55
3697;BME280;60662;48.810;8.872;2023-02-11T15:18:16;98265.47;;;10.34;51.55
3697;BME280;60662;48.810;8.872;2023-02-11T15:19:33;98282.34;;;10.16;51.88
3697;BME280;60662;48.810;8.872;2023-02-11T15:20:36;98250.81;;;10.28;51.55
3697;BME280;60662;48.810;8.872;2023-02-11T15:21:38;98283.84;;;10.80;51.57
3697;BME280;60662;48.810;8.872;2023-02-11T15:22:42;98262.75;;;10.42;51.67
3697;BME280;60662;48.810;8.872;2023-02-11T15:23:58;98286.06;;;10.54;52.20
3697;BME280;60662;48.810;8.872;2023-02-11T15:26:12;98281.66;;;10.05;53.24
3697;BME280;60662;48.810;8.872;2023-02-11T15:27:14;98295.28;;;10.22;52.99
3697;BME280;60662;48.810;8.872;2023-02-11T15:28:27;98296.38;;;10.09;53.80
3697;BME280;60662;48.810;8.872;2023-02-11T15:29:43;98295.16;;;9.75;54.76
3697;BME280;60662;48.810;8.872;2023-02-11T15:30:45;98296.50;;;10.01;54.28
3697;BME280;60662;48.810;8.872;2023-02-11T15:32:14;98287.69;;;10.08;54.14
3697;BME280;60662;48.810;8.872;2023-02-11T15:33:21;98288.50;;;10.10;54.20
